createdAt,value
2023-06-03T00:00:06.975Z,245.40
2023-06-03T00:01:07.213Z,245.79
2023-06-03T00:02:07.060Z,244.10
2023-06-03T00:03:07.146Z,242.05
2023-06-03T00:04:07.298Z,242.12
2023-06-03T00:05:07.122Z,243.66
2023-06-03T00:06:07.148Z,245.37
2023-06-03T00:07:07.152Z,245.98
2023-06-03T00:08:07.178Z,244.88
2023-06-03T00:09:07.168Z,242.80
2023-06-03T00:10:07.245Z,243.82
2023-06-03T00:11:07.667Z,244.92
2023-06-03T00:12:07.403Z,244.22
2023-06-03T00:13:07.479Z,244.33
2023-06-03T00:14:07.545Z,245.33
2023-06-03T00:15:07.627Z,246.16
2023-06-03T00:16:07.774Z,244.86
2023-06-03T00:17:07.806Z,246.25
2023-06-03T00:18:07.934Z,246.19
2023-06-03T00:19:07.969Z,246.30
2023-06-03T00:20:08.445Z,246.91
2023-06-03T00:21:08.208Z,245.40
2023-06-03T00:22:08.249Z,242.27
2023-06-03T00:23:08.314Z,240.36
2023-06-03T00:24:08.393Z,239.47
2023-06-03T00:25:08.589Z,240.59
2023-06-03T00:26:08.560Z,242.74
2023-06-03T00:27:08.659Z,244.36
2023-06-03T00:28:08.738Z,241.76
2023-06-03T00:29:08.810Z,242.54
2023-06-03T00:30:08.907Z,242.15
2023-06-03T00:31:08.977Z,240.14
2023-06-03T00:32:09.103Z,239.48
2023-06-03T00:33:09.201Z,241.37
2023-06-03T00:34:09.288Z,240.51
2023-06-03T00:35:09.328Z,241.29
2023-06-03T00:36:09.402Z,241.81
2023-06-03T00:37:09.499Z,241.34
2023-06-03T00:38:09.573Z,242.55
2023-06-03T00:39:09.663Z,243.11
2023-06-03T00:40:09.741Z,242.39
2023-06-03T00:41:09.917Z,243.12
2023-06-03T00:42:09.921Z,243.41
2023-06-03T00:43:10.036Z,244.26
2023-06-03T00:44:10.124Z,245.07
2023-06-03T00:45:10.214Z,243.06
2023-06-03T00:46:10.314Z,243.53
2023-06-03T00:47:10.402Z,244.50
2023-06-03T00:48:10.489Z,244.19
2023-06-03T00:49:10.559Z,243.39
2023-06-03T00:50:10.631Z,242.08
2023-06-03T00:51:10.714Z,244.17
2023-06-03T00:52:10.795Z,244.50
2023-06-03T00:53:10.898Z,244.76
2023-06-03T00:54:10.965Z,244.71
2023-06-03T00:55:11.036Z,244.79
2023-06-03T00:56:11.142Z,245.03
2023-06-03T00:57:11.290Z,246.35
2023-06-03T00:58:11.294Z,246.21
2023-06-03T00:59:11.368Z,245.93
2023-06-03T01:00:11.466Z,245.19
2023-06-03T01:01:11.565Z,246.35
2023-06-03T01:02:11.658Z,244.33
2023-06-03T01:03:11.778Z,243.17
2023-06-03T01:04:11.811Z,241.30
2023-06-03T01:05:11.911Z,243.14
2023-06-03T01:06:12.004Z,244.88
2023-06-03T01:07:12.073Z,243.72
2023-06-03T01:08:12.150Z,241.23
2023-06-03T01:09:12.258Z,240.61
2023-06-03T01:10:12.340Z,240.46
2023-06-03T01:11:12.423Z,240.05
2023-06-03T01:12:12.492Z,240.48
2023-06-03T01:13:12.592Z,240.78
2023-06-03T01:14:12.672Z,240.87
2023-06-03T01:15:12.737Z,240.68
2023-06-03T01:16:12.837Z,239.75
2023-06-03T01:17:12.920Z,239.68
2023-06-03T01:18:12.998Z,239.83
2023-06-03T01:19:13.066Z,240.52
2023-06-03T01:20:13.146Z,240.91
2023-06-03T01:21:13.235Z,241.02
2023-06-03T01:22:13.307Z,243.47
2023-06-03T01:23:13.381Z,242.13
2023-06-03T01:24:13.417Z,240.72
2023-06-03T01:25:13.540Z,240.94
2023-06-03T01:26:13.583Z,240.60
2023-06-03T01:27:13.705Z,241.39
2023-06-03T01:28:13.758Z,243.22
2023-06-03T01:29:13.854Z,243.89
2023-06-03T01:30:13.939Z,242.60
2023-06-03T01:31:14.046Z,244.00
2023-06-03T01:32:14.129Z,242.64
2023-06-03T01:33:14.190Z,241.68
2023-06-03T01:34:14.274Z,241.14
2023-06-03T01:35:14.377Z,241.24
2023-06-03T01:36:14.437Z,240.41
2023-06-03T01:37:14.521Z,243.20
2023-06-03T01:38:14.607Z,242.27
2023-06-03T01:39:14.699Z,240.72
2023-06-03T01:40:14.796Z,241.55
2023-06-03T01:41:14.885Z,240.90
2023-06-03T01:42:14.966Z,242.20
2023-06-03T01:43:15.033Z,243.22
2023-06-03T01:44:15.120Z,241.91
2023-06-03T01:45:15.202Z,240.81
2023-06-03T01:46:15.321Z,240.71
2023-06-03T01:47:15.433Z,241.81
2023-06-03T01:48:15.478Z,242.02
2023-06-03T01:49:15.565Z,240.70
2023-06-03T01:50:15.643Z,240.68
2023-06-03T01:51:15.750Z,242.13
2023-06-03T01:52:15.823Z,243.52
2023-06-03T01:53:15.983Z,242.31
2023-06-03T01:54:16.023Z,242.13
2023-06-03T01:55:16.090Z,245.55
2023-06-03T01:56:16.175Z,247.03
2023-06-03T01:57:16.278Z,244.65
2023-06-03T01:58:16.348Z,244.14
2023-06-03T01:59:16.418Z,245.38
2023-06-03T02:00:16.521Z,244.58
2023-06-03T02:01:16.686Z,244.90
2023-06-03T02:02:16.709Z,246.40
2023-06-03T02:03:16.827Z,246.02
2023-06-03T02:04:16.856Z,246.95
2023-06-03T02:05:16.941Z,245.53
2023-06-03T02:06:17.005Z,244.66
2023-06-03T02:07:17.115Z,245.21
2023-06-03T02:08:17.209Z,245.52
2023-06-03T02:09:17.312Z,246.52
2023-06-03T02:10:17.391Z,246.09
2023-06-03T02:11:17.457Z,243.93
2023-06-03T02:12:17.481Z,243.94
2023-06-03T02:13:17.508Z,244.06
2023-06-03T02:14:17.527Z,242.99
2023-06-03T02:15:17.536Z,243.41
2023-06-03T02:16:17.555Z,244.90
2023-06-03T02:17:17.568Z,244.32
2023-06-03T02:18:17.587Z,243.51
2023-06-03T02:19:17.680Z,246.00
2023-06-03T02:20:17.638Z,246.57
2023-06-03T02:21:17.696Z,244.82
2023-06-03T02:22:17.762Z,243.35
2023-06-03T02:23:17.882Z,245.11
2023-06-03T02:24:18.794Z,246.23
2023-06-03T02:25:17.980Z,246.74
2023-06-03T02:26:18.035Z,246.67
2023-06-03T02:27:18.131Z,246.57
2023-06-03T02:28:18.228Z,244.17
2023-06-03T02:29:18.306Z,245.56
2023-06-03T02:30:18.344Z,245.65
2023-06-03T02:31:18.373Z,245.63
2023-06-03T02:32:18.378Z,244.93
2023-06-03T02:33:18.391Z,244.82
2023-06-03T02:34:18.404Z,243.89
2023-06-03T02:35:18.418Z,242.64
2023-06-03T02:36:18.448Z,241.84
2023-06-03T02:37:18.509Z,241.15
2023-06-03T02:38:18.485Z,242.15
2023-06-03T02:39:18.568Z,245.54
2023-06-03T02:40:18.658Z,244.33
2023-06-03T02:41:18.733Z,244.17
2023-06-03T02:42:18.813Z,246.35
2023-06-03T02:43:18.884Z,244.61
2023-06-03T02:44:18.940Z,243.50
2023-06-03T02:45:19.014Z,246.10
2023-06-03T02:46:19.158Z,244.99
2023-06-03T02:47:19.197Z,243.29
2023-06-03T02:48:19.275Z,242.37
2023-06-03T02:49:19.368Z,243.73
2023-06-03T02:50:19.538Z,243.26
2023-06-03T02:51:19.607Z,242.93
2023-06-03T02:52:19.704Z,242.89
2023-06-03T02:53:19.753Z,244.28
2023-06-03T02:54:19.813Z,247.23
2023-06-03T02:55:19.880Z,248.31
2023-06-03T02:56:19.931Z,248.73
2023-06-03T02:57:19.998Z,246.12
2023-06-03T02:58:20.034Z,247.80
2023-06-03T02:59:20.091Z,249.91
2023-06-03T03:00:20.150Z,248.33
2023-06-03T03:01:20.267Z,248.98
2023-06-03T03:02:20.321Z,248.23
2023-06-03T03:03:20.419Z,247.99
2023-06-03T03:04:20.393Z,248.96
2023-06-03T03:05:20.442Z,248.88
2023-06-03T03:06:20.476Z,246.44
2023-06-03T03:07:20.542Z,246.11
2023-06-03T03:08:20.610Z,245.36
2023-06-03T03:09:20.687Z,245.30
2023-06-03T03:10:20.754Z,246.20
2023-06-03T03:11:20.814Z,248.68
2023-06-03T03:12:20.898Z,249.00
2023-06-03T03:13:20.989Z,247.21
2023-06-03T03:14:21.022Z,247.69
2023-06-03T03:15:21.070Z,249.20
2023-06-03T03:16:21.164Z,247.48
2023-06-03T03:17:21.195Z,247.73
2023-06-03T03:18:21.263Z,246.50
2023-06-03T03:19:21.316Z,246.83
2023-06-03T03:20:21.388Z,246.28
2023-06-03T03:21:21.461Z,246.74
2023-06-03T03:22:21.550Z,247.46
2023-06-03T03:23:21.605Z,246.79
2023-06-03T03:24:21.683Z,247.57
2023-06-03T03:25:21.778Z,249.97
2023-06-03T03:26:21.796Z,250.00
2023-06-03T03:27:21.873Z,249.69
2023-06-03T03:28:21.945Z,248.98
2023-06-03T03:29:22.009Z,247.51
2023-06-03T03:30:22.078Z,246.31
2023-06-03T03:31:22.199Z,244.11
2023-06-03T03:32:22.270Z,244.51
2023-06-03T03:33:22.297Z,246.29
2023-06-03T03:34:22.403Z,245.58
2023-06-03T03:35:22.468Z,247.08
2023-06-03T03:36:22.565Z,247.44
2023-06-03T03:37:22.644Z,245.98
2023-06-03T03:38:22.729Z,245.48
2023-06-03T03:39:22.800Z,244.05
2023-06-03T03:40:22.885Z,244.25
2023-06-03T03:41:22.942Z,243.21
2023-06-03T03:42:23.064Z,242.98
2023-06-03T03:43:23.097Z,242.39
2023-06-03T03:44:23.198Z,241.12
2023-06-03T03:45:23.290Z,240.80
2023-06-03T03:46:23.451Z,241.07
2023-06-03T03:47:23.564Z,241.65
2023-06-03T03:48:23.542Z,240.82
2023-06-03T03:49:23.621Z,244.19
2023-06-03T03:50:23.721Z,244.13
2023-06-03T03:51:23.791Z,242.84
2023-06-03T03:52:26.006Z,242.63
2023-06-03T03:53:23.895Z,242.66
2023-06-03T03:54:23.953Z,242.75
2023-06-03T03:55:23.930Z,243.00
2023-06-03T03:56:23.955Z,243.42
2023-06-03T03:57:23.976Z,243.70
2023-06-03T03:58:24.011Z,241.80
2023-06-03T03:59:24.044Z,242.57
2023-06-03T04:00:24.077Z,244.94
2023-06-03T04:01:24.085Z,244.64
2023-06-03T04:02:24.186Z,247.07
2023-06-03T04:03:24.166Z,249.70
2023-06-03T04:04:24.146Z,249.32
2023-06-03T04:05:24.173Z,248.50
2023-06-03T04:06:24.188Z,247.77
2023-06-03T04:07:24.353Z,247.84
2023-06-03T04:08:24.260Z,247.15
2023-06-03T04:09:24.252Z,248.10
2023-06-03T04:10:24.298Z,248.16
2023-06-03T04:11:24.296Z,248.28
2023-06-03T04:12:24.400Z,247.72
2023-06-03T04:13:24.357Z,248.41
2023-06-03T04:14:24.371Z,249.63
2023-06-03T04:15:24.413Z,249.71
2023-06-03T04:16:24.513Z,248.91
2023-06-03T04:17:24.564Z,248.96
2023-06-03T04:18:24.651Z,249.57
2023-06-03T04:19:24.619Z,249.13
2023-06-03T04:20:24.686Z,249.96
2023-06-03T04:21:24.727Z,249.92
2023-06-03T04:22:24.790Z,249.94
2023-06-03T04:23:24.924Z,249.98
2023-06-03T04:24:24.926Z,249.89
2023-06-03T04:25:24.990Z,249.58
2023-06-03T04:26:25.033Z,248.86
2023-06-03T04:27:25.109Z,248.10
2023-06-03T04:28:25.161Z,247.26
2023-06-03T04:29:25.201Z,247.51
2023-06-03T04:30:25.306Z,248.37
2023-06-03T04:31:25.363Z,247.78
2023-06-03T04:32:25.447Z,246.36
2023-06-03T04:33:25.516Z,245.85
2023-06-03T04:34:25.550Z,245.43
2023-06-03T04:35:25.644Z,247.32
2023-06-03T04:36:25.708Z,247.62
2023-06-03T04:37:25.779Z,247.17
2023-06-03T04:38:25.853Z,248.94
2023-06-03T04:39:25.915Z,250.00
2023-06-03T04:40:25.972Z,248.52
2023-06-03T04:41:26.003Z,248.01
2023-06-03T04:42:26.088Z,247.76
2023-06-03T04:43:26.142Z,248.91
2023-06-03T04:44:26.252Z,249.70
2023-06-03T04:45:26.316Z,249.48
2023-06-03T04:46:26.386Z,249.63
2023-06-03T04:47:26.419Z,249.12
2023-06-03T04:48:26.410Z,249.70
2023-06-03T04:49:26.465Z,249.09
2023-06-03T04:50:27.574Z,249.67
2023-06-03T04:51:26.516Z,249.80
2023-06-03T04:52:26.526Z,249.25
2023-06-03T04:53:26.536Z,249.39
2023-06-03T04:54:26.572Z,248.67
2023-06-03T04:55:26.645Z,248.35
2023-06-03T04:56:26.618Z,247.77
2023-06-03T04:57:26.655Z,247.48
2023-06-03T04:58:26.694Z,248.07
2023-06-03T04:59:26.712Z,248.94
2023-06-03T05:00:26.736Z,248.89
2023-06-03T05:01:26.798Z,248.24
2023-06-03T05:02:26.859Z,249.43
2023-06-03T05:03:26.912Z,249.40
2023-06-03T05:04:26.833Z,249.25
2023-06-03T05:05:26.867Z,248.78
2023-06-03T05:06:26.884Z,250.00
2023-06-03T05:07:26.912Z,249.68
2023-06-03T05:08:26.952Z,248.76
2023-06-03T05:09:26.947Z,248.78
2023-06-03T05:10:26.977Z,246.56
2023-06-03T05:11:27.014Z,246.99
2023-06-03T05:12:27.050Z,247.00
2023-06-03T05:13:27.068Z,247.16
2023-06-03T05:14:27.080Z,247.51
2023-06-03T05:15:27.106Z,247.62
2023-06-03T05:16:27.220Z,246.89
2023-06-03T05:17:27.287Z,247.43
2023-06-03T05:18:27.361Z,247.71
2023-06-03T05:19:27.444Z,247.61
2023-06-03T05:20:27.552Z,248.02
2023-06-03T05:21:27.617Z,247.99
2023-06-03T05:22:27.756Z,247.06
2023-06-03T05:23:27.844Z,247.02
2023-06-03T05:24:27.900Z,246.75
2023-06-03T05:25:27.968Z,246.55
2023-06-03T05:26:28.071Z,243.68
2023-06-03T05:27:28.175Z,244.99
2023-06-03T05:28:28.263Z,243.99
2023-06-03T05:29:28.373Z,242.37
2023-06-03T05:30:28.450Z,242.22
2023-06-03T05:31:28.657Z,243.79
2023-06-03T05:32:28.721Z,245.70
2023-06-03T05:33:28.760Z,245.07
2023-06-03T05:34:28.829Z,246.05
2023-06-03T05:35:28.927Z,245.99
2023-06-03T05:36:29.035Z,245.69
2023-06-03T05:37:29.137Z,245.35
2023-06-03T05:38:29.221Z,246.26
2023-06-03T05:39:29.309Z,245.45
2023-06-03T05:40:29.420Z,246.05
2023-06-03T05:41:29.524Z,246.25
2023-06-03T05:42:29.620Z,246.67
2023-06-03T05:43:29.724Z,245.15
2023-06-03T05:44:29.813Z,245.35
2023-06-03T05:45:29.909Z,245.18
2023-06-03T05:46:30.161Z,245.87
2023-06-03T05:47:30.129Z,245.99
2023-06-03T05:48:30.217Z,246.61
2023-06-03T05:49:30.285Z,246.56
2023-06-03T05:50:30.385Z,245.95
2023-06-03T05:51:30.499Z,246.03
2023-06-03T05:52:30.591Z,246.16
2023-06-03T05:53:30.661Z,246.20
2023-06-03T05:54:30.791Z,245.82
2023-06-03T05:55:30.866Z,246.29
2023-06-03T05:56:30.973Z,246.64
2023-06-03T05:57:31.062Z,246.62
2023-06-03T05:58:31.172Z,245.46
2023-06-03T05:59:31.232Z,245.68
2023-06-03T06:00:31.330Z,245.94
2023-06-03T06:01:31.402Z,246.49
2023-06-03T06:02:31.574Z,245.82
2023-06-03T06:03:31.825Z,245.72
2023-06-03T06:04:31.695Z,245.52
2023-06-03T06:05:31.750Z,244.66
2023-06-03T06:06:31.856Z,244.04
2023-06-03T06:07:31.934Z,244.55
2023-06-03T06:08:32.018Z,244.08
2023-06-03T06:09:32.097Z,242.31
2023-06-03T06:10:32.176Z,239.59
2023-06-03T06:11:32.267Z,237.63
2023-06-03T06:12:32.350Z,237.12
2023-06-03T06:13:32.366Z,237.15
2023-06-03T06:14:32.400Z,237.15
2023-06-03T06:15:32.425Z,233.52
2023-06-03T06:16:32.518Z,230.43
2023-06-03T06:17:32.534Z,229.52
2023-06-03T06:18:32.594Z,229.23
2023-06-03T06:19:32.555Z,229.81
2023-06-03T06:20:32.630Z,230.23
2023-06-03T06:21:32.641Z,232.12
2023-06-03T06:22:32.685Z,234.32
2023-06-03T06:23:32.890Z,235.71
2023-06-03T06:24:34.773Z,236.42
2023-06-03T06:25:32.914Z,236.79
2023-06-03T06:26:32.930Z,236.13
2023-06-03T06:27:32.965Z,236.02
2023-06-03T06:28:33.007Z,235.83
2023-06-03T06:29:33.036Z,235.37
2023-06-03T06:30:33.074Z,235.50
2023-06-03T06:31:33.149Z,234.52
2023-06-03T06:32:33.151Z,233.23
2023-06-03T06:33:33.141Z,233.02
2023-06-03T06:34:33.170Z,231.84
2023-06-03T06:35:33.169Z,231.65
2023-06-03T06:36:33.226Z,230.44
2023-06-03T06:37:33.225Z,229.56
2023-06-03T06:38:33.239Z,229.47
2023-06-03T06:39:33.264Z,229.15
2023-06-03T06:40:33.275Z,228.00
2023-06-03T06:41:33.296Z,227.82
2023-06-03T06:42:33.347Z,226.78
2023-06-03T06:43:33.360Z,226.56
2023-06-03T06:44:33.370Z,225.76
2023-06-03T06:45:33.411Z,224.85
2023-06-03T06:46:33.502Z,224.31
2023-06-03T06:47:33.452Z,223.34
2023-06-03T06:48:33.495Z,223.05
2023-06-03T06:49:33.449Z,222.88
2023-06-03T06:50:33.459Z,221.69
2023-06-03T06:51:33.468Z,221.30
2023-06-03T06:52:33.507Z,220.95
2023-06-03T06:53:33.503Z,220.40
2023-06-03T06:54:33.573Z,219.49
2023-06-03T06:55:33.523Z,218.32
2023-06-03T06:56:33.549Z,217.73
2023-06-03T06:57:33.546Z,217.48
2023-06-03T06:58:33.556Z,217.16
2023-06-03T06:59:33.588Z,216.67
2023-06-03T07:00:33.649Z,216.30
2023-06-03T07:01:33.746Z,215.19
2023-06-03T07:02:33.806Z,214.22
2023-06-03T07:03:33.915Z,213.40
2023-06-03T07:04:33.910Z,212.52
2023-06-03T07:05:33.969Z,212.72
2023-06-03T07:06:34.038Z,211.79
2023-06-03T07:07:34.119Z,211.40
2023-06-03T07:08:34.156Z,210.45
2023-06-03T07:09:34.236Z,209.70
2023-06-03T07:10:34.280Z,208.90
2023-06-03T07:11:34.335Z,209.59
2023-06-03T07:12:34.421Z,208.75
2023-06-03T07:13:34.452Z,208.42
2023-06-03T07:14:34.523Z,208.03
2023-06-03T07:15:34.566Z,207.90
2023-06-03T07:16:34.675Z,208.53
2023-06-03T07:17:34.718Z,208.41
2023-06-03T07:18:34.741Z,207.07
2023-06-03T07:19:34.802Z,206.42
2023-06-03T07:20:34.947Z,206.35
2023-06-03T07:21:34.903Z,204.73
2023-06-03T07:22:34.968Z,205.66
2023-06-03T07:23:35.073Z,205.09
2023-06-03T07:24:36.178Z,204.45
2023-06-03T07:25:35.114Z,203.62
2023-06-03T07:26:35.169Z,202.00
2023-06-03T07:27:35.229Z,202.00
2023-06-03T07:28:35.285Z,202.54
2023-06-03T07:29:35.335Z,202.21
2023-06-03T07:30:35.391Z,200.42
2023-06-03T07:31:35.467Z,201.68
2023-06-03T07:32:35.517Z,201.64
2023-06-03T07:33:35.535Z,201.23
2023-06-03T07:34:35.592Z,200.99
2023-06-03T07:35:35.639Z,200.21
2023-06-03T07:36:35.681Z,198.75
2023-06-03T07:37:35.744Z,199.69
2023-06-03T07:38:35.783Z,201.02
2023-06-03T07:39:35.844Z,201.27
2023-06-03T07:40:35.889Z,201.10
2023-06-03T07:41:35.935Z,201.56
2023-06-03T07:42:35.986Z,201.82
2023-06-03T07:43:36.065Z,202.38
2023-06-03T07:44:36.122Z,202.61
2023-06-03T07:45:36.135Z,203.14
2023-06-03T07:46:36.213Z,203.49
2023-06-03T07:47:36.390Z,203.42
2023-06-03T07:48:36.270Z,204.46
2023-06-03T07:49:36.333Z,204.73
2023-06-03T07:50:36.396Z,205.69
2023-06-03T07:51:36.417Z,203.53
2023-06-03T07:52:36.469Z,205.56
2023-06-03T07:53:36.585Z,204.36
2023-06-03T07:54:36.626Z,204.33
2023-06-03T07:55:36.627Z,203.90
2023-06-03T07:56:36.622Z,203.90
2023-06-03T07:57:36.634Z,204.07
2023-06-03T07:58:36.629Z,203.24
2023-06-03T07:59:36.640Z,202.91
2023-06-03T08:00:36.649Z,202.78
2023-06-03T08:01:36.673Z,203.10
2023-06-03T08:02:36.782Z,201.71
2023-06-03T08:03:36.694Z,202.10
2023-06-03T08:04:36.675Z,203.55
2023-06-03T08:05:36.688Z,203.56
2023-06-03T08:06:36.732Z,203.09
2023-06-03T08:07:36.703Z,202.13
2023-06-03T08:08:36.709Z,204.54
2023-06-03T08:09:36.722Z,204.10
2023-06-03T08:10:36.714Z,204.39
2023-06-03T08:11:36.745Z,204.17
2023-06-03T08:12:36.785Z,203.98
2023-06-03T08:13:36.817Z,203.82
2023-06-03T08:14:36.858Z,205.77
2023-06-03T08:15:36.893Z,204.97
2023-06-03T08:16:37.022Z,203.93
2023-06-03T08:17:37.012Z,204.64
2023-06-03T08:18:37.004Z,204.47
2023-06-03T08:19:37.032Z,203.73
2023-06-03T08:20:37.066Z,204.15
2023-06-03T08:21:37.099Z,205.53
2023-06-03T08:22:37.142Z,205.89
2023-06-03T08:23:37.201Z,205.07
2023-06-03T08:24:37.183Z,204.09
2023-06-03T08:25:37.216Z,201.86
2023-06-03T08:26:37.248Z,199.66
2023-06-03T08:27:37.295Z,195.05
2023-06-03T08:28:37.294Z,199.58
2023-06-03T08:29:37.331Z,202.15
2023-06-03T08:30:37.367Z,203.22
2023-06-03T08:31:37.379Z,205.12
2023-06-03T08:32:37.424Z,204.66
2023-06-03T08:33:37.436Z,203.53
2023-06-03T08:34:37.495Z,204.82
2023-06-03T08:35:37.482Z,204.27
2023-06-03T08:36:37.501Z,207.97
2023-06-03T08:37:37.529Z,208.33
2023-06-03T08:38:37.569Z,210.22
2023-06-03T08:39:37.584Z,211.00
2023-06-03T08:40:37.604Z,212.18
2023-06-03T08:41:37.601Z,214.79
2023-06-03T08:42:37.638Z,215.29
2023-06-03T08:43:37.648Z,217.14
2023-06-03T08:44:37.682Z,218.30
2023-06-03T08:45:37.743Z,218.38
2023-06-03T08:46:37.713Z,218.32
2023-06-03T08:47:37.760Z,219.18
2023-06-03T08:48:37.752Z,219.93
2023-06-03T08:49:37.798Z,221.09
2023-06-03T08:50:37.841Z,219.46
2023-06-03T08:51:37.856Z,220.42
2023-06-03T08:52:37.869Z,217.90
2023-06-03T08:53:37.880Z,217.67
2023-06-03T08:54:37.902Z,214.36
2023-06-03T08:55:37.924Z,215.43
2023-06-03T08:56:37.936Z,214.64
2023-06-03T08:57:37.969Z,216.30
2023-06-03T08:58:37.981Z,216.12
2023-06-03T08:59:37.975Z,214.87
2023-06-03T09:00:37.999Z,213.42
2023-06-03T09:01:38.000Z,210.28
2023-06-03T09:02:38.042Z,209.64
2023-06-03T09:03:38.081Z,208.51
2023-06-03T09:04:38.080Z,208.65
2023-06-03T09:05:38.062Z,208.65
2023-06-03T09:06:38.037Z,208.76
2023-06-03T09:07:38.059Z,208.81
2023-06-03T09:08:38.037Z,209.59
2023-06-03T09:09:38.043Z,208.96
2023-06-03T09:10:38.045Z,209.78
2023-06-03T09:11:38.045Z,209.71
2023-06-03T09:12:38.059Z,209.15
2023-06-03T09:13:38.053Z,206.70
2023-06-03T09:14:38.050Z,201.63
2023-06-03T09:15:38.051Z,196.02
2023-06-03T09:16:38.159Z,191.99
2023-06-03T09:17:38.067Z,188.64
2023-06-03T09:18:38.053Z,190.05
2023-06-03T09:19:38.089Z,184.79
2023-06-03T09:20:38.056Z,181.70
2023-06-03T09:21:38.046Z,178.52
2023-06-03T09:22:38.064Z,176.64
2023-06-03T09:23:38.090Z,177.19
2023-06-03T09:24:38.052Z,175.57
2023-06-03T09:25:38.067Z,174.61
2023-06-03T09:26:38.039Z,174.47
2023-06-03T09:27:38.085Z,173.94
2023-06-03T09:28:38.030Z,171.96
2023-06-03T09:29:38.052Z,172.35
2023-06-03T09:30:38.043Z,169.93
2023-06-03T09:31:38.112Z,169.04
2023-06-03T09:32:38.144Z,169.07
2023-06-03T09:33:38.051Z,168.14
2023-06-03T09:34:38.032Z,167.93
2023-06-03T09:35:38.071Z,165.67
2023-06-03T09:36:38.040Z,163.65
2023-06-03T09:37:38.051Z,163.63
2023-06-03T09:38:38.028Z,162.39
2023-06-03T09:39:38.044Z,162.54
2023-06-03T09:40:38.040Z,160.16
2023-06-03T09:41:38.029Z,159.92
2023-06-03T09:42:38.015Z,160.07
2023-06-03T09:43:38.015Z,157.24
2023-06-03T09:44:38.010Z,158.95
2023-06-03T09:45:38.022Z,158.98
2023-06-03T09:46:38.026Z,162.03
2023-06-03T09:47:38.037Z,161.05
2023-06-03T09:48:38.008Z,163.83
2023-06-03T09:49:49.947Z,163.81
2023-06-03T09:50:38.983Z,163.84
2023-06-03T09:51:37.988Z,164.02
2023-06-03T09:52:37.969Z,164.98
2023-06-03T09:53:37.988Z,166.35
2023-06-03T09:54:38.011Z,168.62
2023-06-03T09:55:37.985Z,167.64
2023-06-03T09:56:37.963Z,167.81
2023-06-03T09:57:37.963Z,166.74
2023-06-03T09:58:37.961Z,164.77
2023-06-03T09:59:37.953Z,164.58
2023-06-03T10:00:37.983Z,164.78
2023-06-03T10:01:38.009Z,161.18
2023-06-03T10:02:38.053Z,160.15
2023-06-03T10:03:37.946Z,158.90
2023-06-03T10:04:37.965Z,159.71
2023-06-03T10:05:37.935Z,160.00
2023-06-03T10:06:37.924Z,159.02
2023-06-03T10:07:37.938Z,159.23
2023-06-03T10:08:37.923Z,160.16
2023-06-03T10:09:38.020Z,156.84
2023-06-03T10:10:38.124Z,157.36
2023-06-03T10:11:38.241Z,158.73
2023-06-03T10:12:38.225Z,155.97
2023-06-03T10:13:38.272Z,155.17
2023-06-03T10:14:38.283Z,155.76
2023-06-03T10:15:38.327Z,153.51
2023-06-03T10:16:38.341Z,154.29
2023-06-03T10:17:38.389Z,154.56
2023-06-03T10:18:38.412Z,152.10
2023-06-03T10:19:38.389Z,153.38
2023-06-03T10:20:38.449Z,153.88
2023-06-03T10:21:38.461Z,154.78
2023-06-03T10:22:38.464Z,154.05
2023-06-03T10:23:38.493Z,154.27
2023-06-03T10:24:38.483Z,155.92
2023-06-03T10:25:38.502Z,153.69
2023-06-03T10:26:38.505Z,154.50
2023-06-03T10:27:38.526Z,150.38
2023-06-03T10:28:38.549Z,151.27
2023-06-03T10:29:38.531Z,153.59
2023-06-03T10:30:38.557Z,149.37
2023-06-03T10:31:38.555Z,152.60
2023-06-03T10:32:38.728Z,153.65
2023-06-03T10:33:38.652Z,153.00
2023-06-03T10:34:38.653Z,152.17
2023-06-03T10:35:38.700Z,151.78
2023-06-03T10:36:38.650Z,153.43
2023-06-03T10:37:38.657Z,157.10
2023-06-03T10:38:38.731Z,159.40
2023-06-03T10:39:38.740Z,163.40
2023-06-03T10:40:38.729Z,163.80
2023-06-03T10:41:38.734Z,167.65
2023-06-03T10:42:38.772Z,170.37
2023-06-03T10:43:38.766Z,168.91
2023-06-03T10:44:38.768Z,168.63
2023-06-03T10:45:38.786Z,169.30
2023-06-03T10:46:38.854Z,169.00
2023-06-03T10:47:38.827Z,171.95
2023-06-03T10:48:38.814Z,172.20
2023-06-03T10:49:38.848Z,173.23
2023-06-03T10:50:38.873Z,172.93
2023-06-03T10:51:38.889Z,174.34
2023-06-03T10:52:38.920Z,172.81
2023-06-03T10:53:38.945Z,172.76
2023-06-03T10:54:39.031Z,171.72
2023-06-03T10:55:39.062Z,173.12
2023-06-03T10:56:38.995Z,174.31
2023-06-03T10:57:39.031Z,170.97
2023-06-03T10:58:39.024Z,172.87
2023-06-03T10:59:39.084Z,173.09
2023-06-03T11:00:39.123Z,173.06
2023-06-03T11:01:39.183Z,173.04
2023-06-03T11:02:39.235Z,170.32
2023-06-03T11:03:39.306Z,171.98
2023-06-03T11:04:39.246Z,170.33
2023-06-03T11:05:39.266Z,169.90
2023-06-03T11:06:39.353Z,170.89
2023-06-03T11:07:39.392Z,170.64
2023-06-03T11:08:39.460Z,169.28
2023-06-03T11:09:39.557Z,168.45
2023-06-03T11:10:39.530Z,168.13
2023-06-03T11:11:39.568Z,170.67
2023-06-03T11:12:39.590Z,172.72
2023-06-03T11:13:39.657Z,172.02
2023-06-03T11:14:39.674Z,172.40
2023-06-03T11:15:39.738Z,170.87
2023-06-03T11:16:39.871Z,169.08
2023-06-03T11:17:39.846Z,166.13
2023-06-03T11:18:39.888Z,166.47
2023-06-03T11:19:39.929Z,165.15
2023-06-03T11:20:40.004Z,167.35
2023-06-03T11:21:40.047Z,166.40
2023-06-03T11:22:40.157Z,167.07
2023-06-03T11:23:40.238Z,165.68
2023-06-03T11:24:40.247Z,165.09
2023-06-03T11:25:40.286Z,163.47
2023-06-03T11:26:40.329Z,166.80
2023-06-03T11:27:40.376Z,168.29
2023-06-03T11:28:40.410Z,169.84
2023-06-03T11:29:40.446Z,169.12
2023-06-03T11:30:40.522Z,168.22
2023-06-03T11:31:40.608Z,166.62
2023-06-03T11:32:40.627Z,164.76
2023-06-03T11:33:40.682Z,165.12
2023-06-03T11:34:40.717Z,167.48
2023-06-03T11:35:40.720Z,166.26
2023-06-03T11:36:40.721Z,167.51
2023-06-03T11:37:40.720Z,164.07
2023-06-03T11:38:40.719Z,165.70
2023-06-03T11:39:40.714Z,168.82
2023-06-03T11:40:40.701Z,167.90
2023-06-03T11:41:40.721Z,167.64
2023-06-03T11:42:40.696Z,169.54
2023-06-03T11:43:40.712Z,170.21
2023-06-03T11:44:40.685Z,170.80
2023-06-03T11:45:40.709Z,170.88
2023-06-03T11:46:40.757Z,171.91
2023-06-03T11:47:40.840Z,170.06
2023-06-03T11:48:40.888Z,170.32
2023-06-03T11:49:40.908Z,167.56
2023-06-03T11:50:40.946Z,167.82
2023-06-03T11:51:40.989Z,167.85
2023-06-03T11:52:42.387Z,169.76
2023-06-03T11:53:41.094Z,170.11
2023-06-03T11:54:41.085Z,167.27
2023-06-03T11:55:41.107Z,166.69
2023-06-03T11:56:41.137Z,167.94
2023-06-03T11:57:41.161Z,164.11
2023-06-03T11:58:41.309Z,166.43
2023-06-03T11:59:41.245Z,167.48
2023-06-03T12:00:41.295Z,170.12
2023-06-03T12:01:41.300Z,170.34
2023-06-03T12:02:41.434Z,171.44
2023-06-03T12:03:41.420Z,172.22
2023-06-03T12:04:41.500Z,173.69
2023-06-03T12:05:41.525Z,173.78
2023-06-03T12:06:41.548Z,172.51
2023-06-03T12:07:41.578Z,172.30
2023-06-03T12:08:41.645Z,168.84
2023-06-03T12:09:41.686Z,168.18
2023-06-03T12:10:41.730Z,166.29
2023-06-03T12:11:41.782Z,166.02
2023-06-03T12:12:41.807Z,165.72
2023-06-03T12:13:41.833Z,165.67
2023-06-03T12:14:41.902Z,166.46
2023-06-03T12:15:41.976Z,166.42
2023-06-03T12:16:41.998Z,164.35
2023-06-03T12:17:42.072Z,164.60
2023-06-03T12:18:42.118Z,165.06
2023-06-03T12:19:42.150Z,162.05
2023-06-03T12:20:43.583Z,161.74
2023-06-03T12:21:42.224Z,159.93
2023-06-03T12:22:42.293Z,161.32
2023-06-03T12:23:42.392Z,160.78
2023-06-03T12:24:42.406Z,158.96
2023-06-03T12:25:42.464Z,160.62
2023-06-03T12:26:42.731Z,159.97
2023-06-03T12:27:42.562Z,160.84
2023-06-03T12:28:42.650Z,159.14